Address 0x656f79d2f5bd29a6bdbb4d108230cc626651d58c

Txn Hash Method
Block
From
To
Value [Txn Fee]
0x33f70fcffb5c73dd82a0ab9c1f7d24452000c9bc5e4d393ee0898cdcef0c1444Work113823912021-08-11 9:24:3043 days 21 hrs ago0x656f79d2f5bd29a6bdbb4d108230cc626651d58cOUT 0xe5ed8148fe4915ce857fc648b9bdef8bb9491fa50 BNB0.01047787
0xcc3bb3eeba8135099fa607cef9eac2e3e1f5d4ca615f5db61b2a875c2c76faa5Work113822532021-08-11 9:17:3643 days 21 hrs ago0x656f79d2f5bd29a6bdbb4d108230cc626651d58cOUT 0xb5913cd4c508f07025678cef939bcc54d3024c390 BNB0.01010219
0x963cd8219a3678cc8c6ad6674f154c24f569fe9054e2f0c712ff80131ebfefc2Deposit97463252021-06-15 5:51:40101 days 43 mins ago0x656f79d2f5bd29a6bdbb4d108230cc626651d58cOUT 0xb5913cd4c508f07025678cef939bcc54d3024c390 BNB0.00143257
0x8a72122c17d61c9952ac5a6f65244b7823aeb41395a2316b0b496af83bbbf6ffApprove97463172021-06-15 5:51:16101 days 43 mins ago0x656f79d2f5bd29a6bdbb4d108230cc626651d58cOUT 0xe60fa777deb72c364447bb18c823c4731fbed6710 BNB0.00047106
0xeff5c8c33f1b9e489edbf9e67aaf84b71e6c1d7cce2fc16bf6fcfd91f72581d4Work97460052021-06-15 5:35:40101 days 59 mins ago0x656f79d2f5bd29a6bdbb4d108230cc626651d58cOUT 0x3f1d4a430c213bd9d4c9a12e4f382270505fcea10 BNB0.011675
0x5eb9bdd812bc338751ecfd3acc80b22ae2427e410291c4dd7363a4a4c4872f30Approve97459672021-06-15 5:33:46101 days 1 hr ago0x656f79d2f5bd29a6bdbb4d108230cc626651d58cOUT 0x7abca3b5f0ca1da0ec05631d5788907d030d0a220 BNB0.00044361
0xe4c4d463cb7ef42e68d0dad8020fe88cd6d7764afc85b09cac27ad2ffd3af148Work97456852021-06-15 5:19:40101 days 1 hr ago0x656f79d2f5bd29a6bdbb4d108230cc626651d58cOUT 0x3f1d4a430c213bd9d4c9a12e4f382270505fcea10 BNB0.00824691
0xc3a246d429409e2ff1a814036be2979670b436c6b98d8c912b7674421c2b2b92Work97450552021-06-15 4:48:10101 days 1 hr ago0x656f79d2f5bd29a6bdbb4d108230cc626651d58cOUT 0x3f1d4a430c213bd9d4c9a12e4f382270505fcea10 BNB0.01158714
0x7c4194922e7a896cec37e2209f056c6cb3e8fff1e265395e11948edb17616d1fTransfer86038742021-05-06 11:56:15140 days 18 hrs ago0x656f79d2f5bd29a6bdbb4d108230cc626651d58cOUT 0x354b3a11d5ea2da89405173977e271f58be2897d0 BNB0.00036797
0x5825afc0454d7c2d2b54d45af6d329390006f70a1835acb20f85cbcf47ab5f75Transfer85995872021-05-06 8:21:54140 days 22 hrs ago0x656f79d2f5bd29a6bdbb4d108230cc626651d58cOUT 0x86c1f21d1622516576ba514b53d2fe5dbe48bab00 BNB0.00054175
0x02d95d5efa2447165958447f4274ccbb09e43ae91f73a54774a1448063e93fe9Transfer85995752021-05-06 8:21:18140 days 22 hrs ago0x656f79d2f5bd29a6bdbb4d108230cc626651d58cOUT 0x0266693f9df932ad7da8a9b44c2129ce8a87e81f0 BNB0.00039187
0x67f2f4a82eaadee5d8043f400afed553c7983a15cd69b7969cb1a9da9ac1a65eHarvest85951832021-05-06 4:41:42141 days 1 hr ago0x656f79d2f5bd29a6bdbb4d108230cc626651d58cOUT 0x0f124b314ff168578cb79103a3ff37fbfdb71d650 BNB0.00290912
0xc939fd1f43fb4f6139a6e1c5006e1324c953bd7e64439edd46ac9d243d5c468fDeposit85768682021-05-05 13:25:50141 days 17 hrs ago0x656f79d2f5bd29a6bdbb4d108230cc626651d58cOUT 0x0f124b314ff168578cb79103a3ff37fbfdb71d650 BNB0.00397362
0xcac8197c4a4ef8e115ddbabe4ef7f05e7be7ef845dd685bf5c39e9519f7097d0Approve85756172021-05-05 12:23:17141 days 18 hrs ago0x656f79d2f5bd29a6bdbb4d108230cc626651d58cOUT 0x6ad3a0d891c59677fbbb22e071613253467c382a0 BNB0.00047129
0x979366d1f6066705db5a8fdef0541a2b760fc08cb7af862db65e695591c160c8Transfer85754802021-05-05 12:16:26141 days 18 hrs ago0x656f79d2f5bd29a6bdbb4d108230cc626651d58cOUT 0x354b3a11d5ea2da89405173977e271f58be2897d0 BNB0.00155391
0xfd333eedf4668dfaa9cc3db0b360ce2ac47123ed4c78cdb3197de020302af5c8Transfer85754622021-05-05 12:15:32141 days 18 hrs ago0x656f79d2f5bd29a6bdbb4d108230cc626651d58cOUT 0x354b3a11d5ea2da89405173977e271f58be2897d0 BNB0.00110391
0xbb8857d363c2adb16d7ffddb8a17a3d529e8ddfb3d44ea334b08341096899fd2Transfer84293912021-04-30 10:26:07146 days 20 hrs ago0x656f79d2f5bd29a6bdbb4d108230cc626651d58cOUT 0x354b3a11d5ea2da89405173977e271f58be2897d0 BNB0.00036797
0x6c8585d5a21057aceedf44f8e7f8426b836531a25e000b9e5997174f246cf26bTransfer84293882021-04-30 10:25:58146 days 20 hrs ago0x656f79d2f5bd29a6bdbb4d108230cc626651d58cOUT 0x354b3a11d5ea2da89405173977e271f58be2897d0 BNB0.00051797
0x5487c07b0f24cbd9b3c7fea5ca233e7c32dd8f7d8fb0bb8db3b5100a936ed85eTransfer83970822021-04-29 7:30:37147 days 23 hrs ago0x656f79d2f5bd29a6bdbb4d108230cc626651d58cOUT 0xd5c082df9ede041548fa79e05a1cb077036ca86f0 BNB0.00054163
0xbe2949937e0fc7977029ab4716511eead67e926c386e7e761e1bf27a961e1e04Deposit83682712021-04-28 7:30:04148 days 23 hrs ago0x656f79d2f5bd29a6bdbb4d108230cc626651d58cOUT 0x6ad3a0d891c59677fbbb22e071613253467c382a0 BNB0.00135456
0x56b2ab6122986c5d255427dccfc8d63265f5d37354e6719f2790f9dbdc45b374Approve83682602021-04-28 7:29:31148 days 23 hrs ago0x656f79d2f5bd29a6bdbb4d108230cc626651d58cOUT 0x354b3a11d5ea2da89405173977e271f58be2897d0 BNB0.00044361
0xad56c9864ce6418fe3514a069612809b8c441d66fb5335da725c5b6174794bb6Transfer83682212021-04-28 7:27:34148 days 23 hrs ago0xaa25aa7a19f9c426e07dee59b12f944f4d9f1dd3 IN 0x656f79d2f5bd29a6bdbb4d108230cc626651d58c6.25 BNB0.000378
0x9ccdb850d65ef5063eb357ef94d48b7014c3ed1b0686a8333d53839030359d6bWork82055152021-04-22 15:51:58154 days 14 hrs ago0x656f79d2f5bd29a6bdbb4d108230cc626651d58cOUT 0xf9d32c5e10dd51511894b360e6bd39d7573450f90 BNB0.01035241
0xdfbde3511d6bff1125d3f2e34b33f8fee7babd25909e654d2906c9bfc0920a00Work82054822021-04-22 15:50:19154 days 14 hrs ago0x656f79d2f5bd29a6bdbb4d108230cc626651d58cOUT 0x3f1d4a430c213bd9d4c9a12e4f382270505fcea10 BNB0.01003308
0xf51d006bca95f34bcbad371ccf65e45553ab0085b3aa2272c5e451ce079397afWork82054492021-04-22 15:48:40154 days 14 hrs ago0x656f79d2f5bd29a6bdbb4d108230cc626651d58cOUT 0xf9d32c5e10dd51511894b360e6bd39d7573450f90 BNB0.00480725
[ Download CSV Export 
Latest 9 internal transactions
Parent Txn Hash Block From To Value
0x5e129776120fcfc426ad79cb2c285d70230edc48326b14b58c97e46f277ae9f282050272021-04-22 15:27:34154 days 15 hrs ago 0xf9d32c5e10dd51511894b360e6bd39d7573450f90x656f79d2f5bd29a6bdbb4d108230cc626651d58c0.22737078399529488 BNB
0x0d2298bd55fb63d19e6aed8a2fe9fe8766ebee63cca815fec5e63352c2e74b9b82031252021-04-22 13:52:28154 days 16 hrs ago 0xf9d32c5e10dd51511894b360e6bd39d7573450f90x656f79d2f5bd29a6bdbb4d108230cc626651d58c1.003747331101258823 BNB
0x3e9a012947d58d748f707331fa5e085d703a3b505d1134a8bf9e0c2ff0202c6782012412021-04-22 12:18:16154 days 18 hrs ago 0xf9d32c5e10dd51511894b360e6bd39d7573450f90x656f79d2f5bd29a6bdbb4d108230cc626651d58c1.017427976428763215 BNB
0x96320ddc13341e6d1f38c3910ce97a64f7ee4708dd30bfa7a69e946d0462535782011882021-04-22 12:15:37154 days 18 hrs ago 0xf9d32c5e10dd51511894b360e6bd39d7573450f90x656f79d2f5bd29a6bdbb4d108230cc626651d58c0.255395015366777918 BNB
0xcb8b2cfc0ad1b062bf199989f2dfbe60305d276feb7b53fb2c45c1f534a4089b79686072021-04-14 10:26:33162 days 20 hrs ago 0xf9d32c5e10dd51511894b360e6bd39d7573450f90x656f79d2f5bd29a6bdbb4d108230cc626651d58c0.298811543456763701 BNB
0x1b7f073f5991f0fe6314378a0cace9f2fb70900329b69d3bd26b02fa46e4aaa179672852021-04-14 9:20:27162 days 21 hrs ago 0xf9d32c5e10dd51511894b360e6bd39d7573450f90x656f79d2f5bd29a6bdbb4d108230cc626651d58c2.000000332574575075 BNB
0xe862e169b0102b6228835b0798828b16bdeb00a2b62de68e1f1af578e61f3c5c73557952021-03-24 3:16:52184 days 3 hrs ago 0xf9d32c5e10dd51511894b360e6bd39d7573450f90x656f79d2f5bd29a6bdbb4d108230cc626651d58c1.619660414859039232 BNB
0xdbc404f64a2d4b8b35a4bf7ee348e22bc8395bc12fffc2ed7578facf5c65f56873365662021-03-23 11:15:25184 days 19 hrs ago 0xf9d32c5e10dd51511894b360e6bd39d7573450f90x656f79d2f5bd29a6bdbb4d108230cc626651d58c0.882542910635833373 BNB
0xcf7075c99b165e88fbd54ea586cbf238336c26c4946cb025c609ae17e1d4cbc771880242021-03-18 7:00:36189 days 23 hrs ago 0x6883d1297721f4584077fe7471c396538dc5dcbc0x656f79d2f5bd29a6bdbb4d108230cc626651d58c2.000204902951542202 BNB
[ Download CSV Export 
Loading

Contract Name:
0 BNB

Compiler Version
0

Optimization Enabled:
0 BNB

Other Settings:
-NA-
Block Transaction Gas Used Reward
Age Block Fee Address BC Fee Address Voting Power Jailed Incoming
Block Uncle Number Difficulty Gas Used Reward
Loading